Time,TemperatureF,DewpointF,PressureIn,WindDirection,WindDirectionDegrees,WindSpeedMPH,WindSpeedGustMPH,Humidity,HourlyPrecipIn,Conditions,Clouds,dailyrainin,SoftwareType,DateUTC
2013-11-04 00:01:00,31.8,2.4,29.59,North,351,4.0,4.5,28,0.00,,---,0.00,VWS V14.01,2013-11-04 05:01:00,
2013-11-04 00:02:00,31.8,2.4,29.59,NNW,347,6.3,6.3,28,0.00,,---,0.00,VWS V14.01,2013-11-04 05:02:00,
2013-11-04 00:05:00,31.8,3.9,29.59,North,351,4.0,5.4,30,0.00,,---,0.00,VWS V14.01,2013-11-04 05:05:00,
2013-11-04 00:06:00,31.6,2.3,29.59,North,351,5.4,5.8,28,0.00,,---,0.00,VWS V14.01,2013-11-04 05:06:00,
2013-11-04 00:08:00,31.6,2.3,29.59,North,351,5.4,5.8,28,0.00,,---,0.00,VWS V14.01,2013-11-04 05:08:00,
2013-11-04 00:09:00,31.6,2.3,29.59,NNW,342,4.0,5.4,28,0.00,,---,0.00,VWS V14.01,2013-11-04 05:09:00,
2013-11-04 00:14:00,31.5,-0.3,29.59,North,351,5.4,6.3,25,0.00,,---,0.00,VWS V14.01,2013-11-04 05:14:00,
2013-11-04 00:19:00,31.3,-0.4,29.59,North,351,4.5,6.3,25,0.00,,---,0.00,VWS V14.01,2013-11-04 05:19:00,
2013-11-04 00:24:00,31.3,-0.4,29.59,North,351,4.9,5.4,25,0.00,,---,0.00,VWS V14.01,2013-11-04 05:24:00,
2013-11-04 00:29:00,31.3,2.0,29.59,North,351,2.7,5.4,28,0.00,,---,0.00,VWS V14.01,2013-11-04 05:29:00,
2013-11-04 00:34:00,31.3,4.2,29.59,NNW,341,4.0,6.3,31,0.00,,---,0.00,VWS V14.01,2013-11-04 05:34:00,
2013-11-04 00:39:00,31.3,4.2,29.59,NNW,345,4.9,5.4,31,0.00,,---,0.00,VWS V14.01,2013-11-04 05:39:00,
2013-11-04 00:44:00,31.3,4.2,29.59,North,351,5.4,6.3,31,0.00,,---,0.00,VWS V14.01,2013-11-04 05:44:00,
2013-11-04 00:49:00,31.3,4.2,29.62,North,7,2.7,4.0,31,0.00,,---,0.00,VWS V14.01,2013-11-04 05:49:00,
2013-11-04 00:54:00,31.3,3.5,29.62,NNW,347,3.6,6.7,30,0.00,,---,0.00,VWS V14.01,2013-11-04 05:54:00,
2013-11-04 00:59:00,31.3,3.5,29.62,NNW,346,4.9,4.9,30,0.00,,---,0.00,VWS V14.01,2013-11-04 05:59:00,
2013-11-04 01:05:00,31.3,4.2,29.62,NNW,334,4.0,5.8,31,0.00,,---,0.00,VWS V14.01,2013-11-04 06:05:00,
2013-11-04 01:10:00,31.1,3.3,29.62,North,0,0.0,4.9,30,0.00,,---,0.00,VWS V14.01,2013-11-04 06:10:00,
2013-11-04 01:15:00,31.1,4.0,29.62,NNW,328,4.9,5.8,31,0.00,,---,0.00,VWS V14.01,2013-11-04 06:15:00,
2013-11-04 01:20:00,30.9,3.1,29.62,NNW,346,4.5,5.8,30,0.00,,---,0.00,VWS V14.01,2013-11-04 06:20:00,
2013-11-04 01:25:00,31.1,4.0,29.62,North,351,4.0,6.3,31,0.00,,---,0.00,VWS V14.01,2013-11-04 06:25:00,
2013-11-04 01:30:00,30.9,3.8,29.62,NNW,347,2.7,5.4,31,0.00,,---,0.00,VWS V14.01,2013-11-04 06:30:00,
2013-11-04 01:35:00,30.9,3.8,29.62,North,351,5.8,5.8,31,0.00,,---,0.00,VWS V14.01,2013-11-04 06:35:00,
2013-11-04 01:40:00,30.9,3.8,29.62,North,351,3.1,5.8,31,0.00,,---,0.00,VWS V14.01,2013-11-04 06:40:00,
2013-11-04 01:45:00,30.9,3.8,29.65,NNW,346,4.9,5.8,31,0.00,,---,0.00,VWS V14.01,2013-11-04 06:45:00,
2013-11-04 01:50:00,30.7,3.7,29.65,North,351,4.0,5.8,31,0.00,,---,0.00,VWS V14.01,2013-11-04 06:50:00,
2013-11-04 01:55:00,30.6,4.2,29.65,North,351,4.5,6.7,32,0.00,,---,0.00,VWS V14.01,2013-11-04 06:55:00,
2013-11-04 02:00:00,30.7,4.4,29.65,NNW,345,3.1,5.8,32,0.00,,---,0.00,VWS V14.01,2013-11-04 07:00:00,
2013-11-04 02:05:00,30.6,3.5,29.65,North,351,5.4,5.4,31,0.00,,---,0.00,VWS V14.01,2013-11-04 07:05:00,
2013-11-04 02:10:00,30.7,4.4,29.65,NNW,341,4.9,5.8,32,0.00,,---,0.00,VWS V14.01,2013-11-04 07:10:00,
2013-11-04 02:15:00,30.6,4.2,29.65,NNW,342,4.9,5.4,32,0.00,,---,0.00,VWS V14.01,2013-11-04 07:15:00,
2013-11-04 02:20:00,30.7,4.4,29.65,North,351,5.4,6.9,32,0.00,,---,0.00,VWS V14.01,2013-11-04 07:20:00,
2013-11-04 02:25:00,30.7,4.4,29.65,NNW,342,4.5,4.9,32,0.00,,---,0.00,VWS V14.01,2013-11-04 07:25:00,
2013-11-04 02:30:00,30.7,4.4,29.65,NNE,17,4.0,5.8,32,0.00,,---,0.00,VWS V14.01,2013-11-04 07:30:00,
2013-11-04 02:36:00,30.7,5.1,29.65,North,0,4.9,5.4,33,0.00,,---,0.00,VWS V14.01,2013-11-04 07:36:00,
2013-11-04 02:41:00,30.6,4.9,29.65,North,1,4.9,6.7,33,0.00,,---,0.00,VWS V14.01,2013-11-04 07:41:00,
2013-11-04 02:46:00,30.6,4.2,29.65,North,351,5.4,5.4,32,0.00,,---,0.00,VWS V14.01,2013-11-04 07:46:00,
2013-11-04 02:51:00,30.4,4.1,29.65,North,351,5.4,6.3,32,0.00,,---,0.00,VWS V14.01,2013-11-04 07:51:00,
2013-11-04 02:56:00,30.4,4.1,29.65,North,351,6.7,6.7,32,0.00,,---,0.00,VWS V14.01,2013-11-04 07:56:00,
2013-11-04 03:01:00,30.4,4.1,29.65,North,0,4.9,8.7,32,0.00,,---,0.00,VWS V14.01,2013-11-04 08:01:00,
2013-11-04 03:06:00,30.4,4.1,29.65,NNW,345,5.8,6.3,32,0.00,,---,0.00,VWS V14.01,2013-11-04 08:06:00,
2013-11-04 03:11:00,30.4,4.1,29.65,NNW,344,4.5,6.3,32,0.00,,---,0.00,VWS V14.01,2013-11-04 08:11:00,
2013-11-04 03:16:00,30.4,4.1,29.65,NNW,342,4.9,5.4,32,0.00,,---,0.00,VWS V14.01,2013-11-04 08:16:00,
2013-11-04 03:21:00,30.2,3.2,29.65,North,351,5.4,6.9,31,0.00,,---,0.00,VWS V14.01,2013-11-04 08:21:00,
2013-11-04 03:26:00,30.2,3.2,29.65,North,351,5.8,7.4,31,0.00,,---,0.00,VWS V14.01,2013-11-04 08:26:00,
2013-11-04 03:31:00,30.0,3.1,29.65,North,351,5.4,6.7,31,0.00,,---,0.00,VWS V14.01,2013-11-04 08:31:00,
2013-11-04 03:36:00,30.0,3.8,29.65,North,351,6.7,6.7,32,0.00,,---,0.00,VWS V14.01,2013-11-04 08:36:00,
2013-11-04 03:41:00,30.0,3.8,29.65,North,351,5.4,6.9,32,0.00,,---,0.00,VWS V14.01,2013-11-04 08:41:00,
2013-11-04 03:46:00,30.0,3.8,29.65,North,351,4.0,6.3,32,0.00,,---,0.00,VWS V14.01,2013-11-04 08:46:00,
2013-11-04 03:51:00,30.0,3.8,29.65,NNW,340,5.8,6.3,32,0.00,,---,0.00,VWS V14.01,2013-11-04 08:51:00,
2013-11-04 03:56:00,30.0,3.8,29.65,North,351,6.3,6.7,32,0.00,,---,0.00,VWS V14.01,2013-11-04 08:56:00,
2013-11-04 04:01:00,30.0,3.8,29.68,North,351,6.3,6.9,32,0.00,,---,0.00,VWS V14.01,2013-11-04 09:01:00,
2013-11-04 04:06:00,29.8,3.6,29.68,North,351,5.4,6.7,32,0.00,,---,0.00,VWS V14.01,2013-11-04 09:06:00,
2013-11-04 04:11:00,29.8,3.6,29.68,North,351,4.9,6.7,32,0.00,,---,0.00,VWS V14.01,2013-11-04 09:11:00,
2013-11-04 04:16:00,29.8,3.6,29.68,North,0,4.9,5.8,32,0.00,,---,0.00,VWS V14.01,2013-11-04 09:16:00,
2013-11-04 04:21:00,29.8,4.9,29.68,North,351,5.8,5.8,34,0.00,,---,0.00,VWS V14.01,2013-11-04 09:21:00,
2013-11-04 04:26:00,29.8,4.9,29.68,North,2,5.4,5.4,34,0.00,,---,0.00,VWS V14.01,2013-11-04 09:26:00,
2013-11-04 04:31:00,29.8,6.2,29.68,North,1,3.6,4.5,36,0.00,,---,0.00,VWS V14.01,2013-11-04 09:31:00,
2013-11-04 04:36:00,30.0,6.3,29.68,North,5,4.5,5.4,36,0.00,,---,0.00,VWS V14.01,2013-11-04 09:36:00,
2013-11-04 04:41:00,30.0,5.7,29.68,NNE,24,3.6,4.9,35,0.00,,---,0.00,VWS V14.01,2013-11-04 09:41:00,
2013-11-04 04:46:00,30.0,5.7,29.68,North,351,4.9,5.4,35,0.00,,---,0.00,VWS V14.01,2013-11-04 09:46:00,
2013-11-04 04:51:00,29.8,4.2,29.68,North,351,4.5,5.8,33,0.00,,---,0.00,VWS V14.01,2013-11-04 09:51:00,
2013-11-04 04:56:00,29.7,3.4,29.68,North,351,3.6,5.4,32,0.00,,---,0.00,VWS V14.01,2013-11-04 09:56:00,
2013-11-04 05:01:00,29.7,4.7,29.68,North,0,4.9,6.3,34,0.00,,---,0.00,VWS V14.01,2013-11-04 10:01:00,
2013-11-04 05:06:00,29.7,4.1,29.68,North,351,4.0,6.3,33,0.00,,---,0.00,VWS V14.01,2013-11-04 10:06:00,
2013-11-04 05:11:00,29.7,4.1,29.68,NNW,347,5.4,5.4,33,0.00,,---,0.00,VWS V14.01,2013-11-04 10:11:00,
2013-11-04 05:16:00,29.7,4.1,29.71,North,351,4.9,5.4,33,0.00,,---,0.00,VWS V14.01,2013-11-04 10:16:00,
2013-11-04 05:21:00,29.7,3.4,29.71,North,351,4.5,4.9,32,0.00,,---,0.00,VWS V14.01,2013-11-04 10:21:00,
2013-11-04 05:26:00,29.7,4.1,29.71,North,351,3.1,5.4,33,0.00,,---,0.00,VWS V14.01,2013-11-04 10:26:00,
2013-11-04 05:31:00,29.5,3.3,29.71,North,351,6.7,6.7,32,0.00,,---,0.00,VWS V14.01,2013-11-04 10:31:00,
2013-11-04 05:36:00,29.5,3.9,29.71,North,351,5.4,5.4,33,0.00,,---,0.00,VWS V14.01,2013-11-04 10:36:00,
2013-11-04 05:41:00,29.7,4.7,29.71,NNW,346,5.4,5.8,34,0.00,,---,0.00,VWS V14.01,2013-11-04 10:41:00,
2013-11-04 05:46:00,29.7,5.4,29.71,North,3,3.6,5.8,35,0.00,,---,0.00,VWS V14.01,2013-11-04 10:46:00,
2013-11-04 05:51:00,29.7,6.0,29.71,North,0,4.0,6.3,36,0.00,,---,0.00,VWS V14.01,2013-11-04 10:51:00,
2013-11-04 05:56:00,29.7,6.0,29.71,North,6,3.6,5.8,36,0.00,,---,0.00,VWS V14.01,2013-11-04 10:56:00,
2013-11-04 06:01:00,29.7,5.4,29.71,North,3,4.0,5.8,35,0.00,,---,0.00,VWS V14.01,2013-11-04 11:01:00,
2013-11-04 06:06:00,29.8,6.8,29.71,NNW,347,5.4,5.8,37,0.00,,---,0.00,VWS V14.01,2013-11-04 11:06:00,
2013-11-04 06:11:00,29.7,4.7,29.71,NNW,343,4.5,6.9,34,0.00,,---,0.00,VWS V14.01,2013-11-04 11:11:00,
2013-11-04 06:16:00,29.7,4.1,29.71,North,351,4.5,5.8,33,0.00,,---,0.00,VWS V14.01,2013-11-04 11:16:00,
2013-11-04 06:18:00,29.7,3.4,29.71,North,351,6.7,6.7,32,0.00,,---,0.00,VWS V14.01,2013-11-04 11:18:00,
2013-11-04 06:23:00,29.7,3.4,29.71,North,351,5.8,5.8,32,0.00,,---,0.00,VWS V14.01,2013-11-04 11:23:00,
2013-11-04 06:28:00,29.5,3.3,29.71,North,351,5.4,5.4,32,0.00,,---,0.00,VWS V14.01,2013-11-04 11:28:00,
2013-11-04 06:29:00,29.5,3.9,29.71,NNW,343,4.5,5.4,33,0.00,,---,0.00,VWS V14.01,2013-11-04 11:29:00,
2013-11-04 06:34:00,29.5,3.9,29.71,North,0,4.5,5.4,33,0.00,,---,0.00,VWS V14.01,2013-11-04 11:34:00,
2013-11-04 06:39:00,29.7,4.1,29.71,North,0,4.5,4.5,33,0.00,,---,0.00,VWS V14.01,2013-11-04 11:39:00,
2013-11-04 06:44:00,29.7,6.6,29.71,North,4,2.7,5.4,37,0.00,,---,0.00,VWS V14.01,2013-11-04 11:44:00,
2013-11-04 06:49:00,30.0,6.9,29.71,North,351,4.5,5.4,37,0.00,,---,0.00,VWS V14.01,2013-11-04 11:49:00,
2013-11-04 06:54:00,30.4,6.0,29.71,NE,54,0.0,4.0,35,0.00,,---,0.00,VWS V14.01,2013-11-04 11:54:00,
2013-11-04 06:59:00,30.7,6.3,29.71,NNE,14,3.6,3.6,35,0.00,,---,0.00,VWS V14.01,2013-11-04 11:59:00,
2013-11-04 07:04:00,30.9,6.5,29.74,North,5,2.7,2.7,35,0.00,,---,0.00,VWS V14.01,2013-11-04 12:04:00,
2013-11-04 07:09:00,31.3,5.5,29.74,NNE,30,4.5,4.5,33,0.00,,---,0.00,VWS V14.01,2013-11-04 12:09:00,
2013-11-04 07:14:00,31.3,4.9,29.74,NE,41,2.7,4.0,32,0.00,,---,0.00,VWS V14.01,2013-11-04 12:14:00,
2013-11-04 07:19:00,31.5,4.3,29.74,North,2,0.0,3.1,31,0.00,,---,0.00,VWS V14.01,2013-11-04 12:19:00,
2013-11-04 07:24:00,31.6,4.5,29.74,NNE,17,3.6,5.8,31,0.00,,---,0.00,VWS V14.01,2013-11-04 12:24:00,
2013-11-04 07:29:00,32.0,4.8,29.74,NNE,17,3.6,4.9,31,0.00,,---,0.00,VWS V14.01,2013-11-04 12:29:00,
2013-11-04 07:34:00,32.2,5.0,29.74,North,0,5.4,5.4,31,0.00,,---,0.00,VWS V14.01,2013-11-04 12:34:00,
2013-11-04 07:39:00,32.5,4.6,29.74,NNE,15,0.0,4.9,30,0.00,,---,0.00,VWS V14.01,2013-11-04 12:39:00,
2013-11-04 07:44:00,32.7,4.7,29.74,North,10,4.0,5.8,30,0.00,,---,0.00,VWS V14.01,2013-11-04 12:44:00,
2013-11-04 07:49:00,32.9,3.4,29.74,NE,50,2.7,4.0,28,0.00,,---,0.00,VWS V14.01,2013-11-04 12:49:00,
2013-11-04 07:54:00,33.1,2.8,29.74,North,6,3.6,7.4,27,0.00,,---,0.00,VWS V14.01,2013-11-04 12:54:00,
2013-11-04 07:59:00,33.4,3.1,29.74,North,1,2.7,5.4,27,0.00,,---,0.00,VWS V14.01,2013-11-04 12:59:00,
2013-11-04 08:04:00,33.4,1.4,29.74,North,0,5.4,5.8,25,0.00,,---,0.00,VWS V14.01,2013-11-04 13:04:00,
2013-11-04 08:09:00,33.8,1.7,29.74,North,351,6.9,6.9,25,0.00,,---,0.00,VWS V14.01,2013-11-04 13:09:00,
2013-11-04 08:14:00,34.0,1.9,29.74,North,0,4.5,4.5,25,0.00,,---,0.00,VWS V14.01,2013-11-04 13:14:00,
2013-11-04 08:19:00,34.5,2.3,29.74,East,79,0.0,3.1,25,0.00,,---,0.00,VWS V14.01,2013-11-04 13:19:00,
2013-11-04 08:24:00,34.9,-0.1,29.74,North,351,5.4,5.4,22,0.00,,---,0.00,VWS V14.01,2013-11-04 13:24:00,
2013-11-04 08:29:00,34.7,-0.2,29.74,NE,56,6.3,6.9,22,0.00,,---,0.00,VWS V14.01,2013-11-04 13:29:00,
2013-11-04 08:34:00,35.4,0.4,29.77,North,0,5.8,6.7,22,0.00,,---,0.00,VWS V14.01,2013-11-04 13:34:00,
2013-11-04 08:39:00,35.6,0.5,29.77,NE,39,0.0,4.5,22,0.00,,---,0.00,VWS V14.01,2013-11-04 13:39:00,
2013-11-04 08:44:00,35.6,0.5,29.77,North,7,3.1,5.8,22,0.00,,---,0.00,VWS V14.01,2013-11-04 13:44:00,
2013-11-04 08:49:00,36.0,0.8,29.77,ENE,73,4.0,4.9,22,0.00,,---,0.00,VWS V14.01,2013-11-04 13:49:00,
2013-11-04 08:54:00,36.3,1.1,29.77,ENE,66,0.0,4.9,22,0.00,,---,0.00,VWS V14.01,2013-11-04 13:54:00,
2013-11-04 08:59:00,36.7,0.4,29.77,ENE,72,4.0,4.9,21,0.00,,---,0.00,VWS V14.01,2013-11-04 13:59:00,
2013-11-04 09:04:00,37.0,0.7,29.77,NNE,18,2.7,4.0,21,0.00,,---,0.00,VWS V14.01,2013-11-04 14:04:00,
2013-11-04 09:09:00,36.9,0.6,29.77,North,0,4.9,5.4,21,0.00,,---,0.00,VWS V14.01,2013-11-04 14:09:00,
2013-11-04 09:14:00,36.7,0.4,29.77,North,5,3.1,4.0,21,0.00,,---,0.00,VWS V14.01,2013-11-04 14:14:00,
2013-11-04 09:19:00,36.9,-1.5,29.77,North,0,3.6,6.3,19,0.00,,---,0.00,VWS V14.01,2013-11-04 14:19:00,
2013-11-04 09:24:00,37.0,0.7,29.77,East,82,5.4,5.8,21,0.00,,---,0.00,VWS V14.01,2013-11-04 14:24:00,
2013-11-04 09:29:00,37.4,-1.1,29.77,North,0,5.4,5.4,19,0.00,,---,0.00,VWS V14.01,2013-11-04 14:29:00,
2013-11-04 09:34:00,37.0,-1.4,29.77,East,80,4.9,5.4,19,0.00,,---,0.00,VWS V14.01,2013-11-04 14:34:00,
2013-11-04 09:39:00,37.4,-1.1,29.77,North,351,3.6,4.5,19,0.00,,---,0.00,VWS V14.01,2013-11-04 14:39:00,
2013-11-04 09:44:00,37.2,-1.2,29.77,NNE,19,3.6,4.9,19,0.00,,---,0.00,VWS V14.01,2013-11-04 14:44:00,
2013-11-04 09:49:00,37.4,-1.1,29.77,East,92,4.5,5.4,19,0.00,,---,0.00,VWS V14.01,2013-11-04 14:49:00,
2013-11-04 09:54:00,37.4,-1.1,29.77,ENE,71,0.0,5.8,19,0.00,,---,0.00,VWS V14.01,2013-11-04 14:54:00,
2013-11-04 09:59:00,37.8,-0.8,29.77,North,351,4.9,4.9,19,0.00,,---,0.00,VWS V14.01,2013-11-04 14:59:00,
2013-11-04 10:04:00,37.9,-0.6,29.77,North,0,2.7,3.6,19,0.00,,---,0.00,VWS V14.01,2013-11-04 15:04:00,
2013-11-04 10:09:00,37.9,-0.6,29.77,ENE,66,0.0,6.7,19,0.00,,---,0.00,VWS V14.01,2013-11-04 15:09:00,
2013-11-04 10:14:00,37.8,-0.8,29.77,NNE,15,4.5,6.9,19,0.00,,---,0.00,VWS V14.01,2013-11-04 15:14:00,
2013-11-04 10:19:00,37.6,-0.9,29.77,North,1,4.5,4.9,19,0.00,,---,0.00,VWS V14.01,2013-11-04 15:19:00,
2013-11-04 10:24:00,37.6,-0.9,29.77,East,89,4.5,5.4,19,0.00,,---,0.00,VWS V14.01,2013-11-04 15:24:00,
2013-11-04 10:29:00,37.9,-0.6,29.77,WNW,303,6.9,6.9,19,0.00,,---,0.00,VWS V14.01,2013-11-04 15:29:00,
2013-11-04 10:34:00,37.9,-0.6,29.77,NNE,15,2.7,5.4,19,0.00,,---,0.00,VWS V14.01,2013-11-04 15:34:00,
2013-11-04 10:39:00,37.9,-0.6,29.77,East,93,4.0,4.0,19,0.00,,---,0.00,VWS V14.01,2013-11-04 15:39:00,
2013-11-04 10:44:00,38.1,-0.5,29.77,SE,134,2.7,4.5,19,0.00,,---,0.00,VWS V14.01,2013-11-04 15:44:00,
2013-11-04 10:49:00,38.1,-0.5,29.77,East,84,0.0,3.1,19,0.00,,---,0.00,VWS V14.01,2013-11-04 15:49:00,
2013-11-04 10:54:00,38.5,-1.3,29.77,ENE,76,4.0,4.5,18,0.00,,---,0.00,VWS V14.01,2013-11-04 15:54:00,
2013-11-04 10:59:00,38.5,-1.3,29.77,NE,42,0.0,5.4,18,0.00,,---,0.00,VWS V14.01,2013-11-04 15:59:00,
2013-11-04 11:04:00,38.1,-0.5,29.77,East,85,5.8,5.8,19,0.00,,---,0.00,VWS V14.01,2013-11-04 16:04:00,
2013-11-04 11:09:00,38.3,-0.3,29.77,SSE,158,0.0,4.0,19,0.00,,---,0.00,VWS V14.01,2013-11-04 16:09:00,
2013-11-04 11:14:00,38.1,-0.5,29.77,ENE,72,3.1,3.6,19,0.00,,---,0.00,VWS V14.01,2013-11-04 16:14:00,
2013-11-04 11:19:00,38.1,-0.5,29.77,North,7,0.0,0.0,19,0.00,,---,0.00,VWS V14.01,2013-11-04 16:19:00,
2013-11-04 11:24:00,38.7,-1.2,29.77,SSE,153,3.6,4.0,18,0.00,,---,0.00,VWS V14.01,2013-11-04 16:24:00,
2013-11-04 11:29:00,39.0,-0.9,29.77,North,0,2.7,3.6,18,0.00,,---,0.00,VWS V14.01,2013-11-04 16:29:00,
2013-11-04 11:34:00,39.4,-0.6,29.77,ESE,106,6.3,6.3,18,0.00,,---,0.00,VWS V14.01,2013-11-04 16:34:00,
2013-11-04 11:39:00,39.9,-0.1,29.77,East,95,3.6,4.9,18,0.00,,---,0.00,VWS V14.01,2013-11-04 16:39:00,
2013-11-04 11:44:00,39.9,-0.1,29.77,North,3,0.0,3.1,18,0.00,,---,0.00,VWS V14.01,2013-11-04 16:44:00,
2013-11-04 11:49:00,40.1,0.0,29.77,SE,139,0.0,3.6,18,0.00,,---,0.00,VWS V14.01,2013-11-04 16:49:00,
2013-11-04 11:54:00,40.3,0.2,29.77,NNE,21,3.1,5.4,18,0.00,,---,0.00,VWS V14.01,2013-11-04 16:54:00,
2013-11-04 11:59:00,40.3,0.2,29.77,North,0,3.1,4.5,18,0.00,,---,0.00,VWS V14.01,2013-11-04 16:59:00,
2013-11-04 12:04:00,40.5,0.3,29.77,NE,46,0.0,4.0,18,0.00,,---,0.00,VWS V14.01,2013-11-04 17:04:00,
2013-11-04 12:09:00,40.3,0.2,29.77,NNW,346,3.6,3.6,18,0.00,,---,0.00,VWS V14.01,2013-11-04 17:09:00,
2013-11-04 12:14:00,40.1,0.0,29.77,North,6,3.1,3.1,18,0.00,,---,0.00,VWS V14.01,2013-11-04 17:14:00,
2013-11-04 12:19:00,40.3,0.2,29.74,NNE,20,0.0,0.0,18,0.00,,---,0.00,VWS V14.01,2013-11-04 17:19:00,
2013-11-04 12:24:00,40.5,0.3,29.74,North,0,0.0,4.9,18,0.00,,---,0.00,VWS V14.01,2013-11-04 17:24:00,
2013-11-04 12:29:00,40.3,0.2,29.74,North,1,0.0,4.5,18,0.00,,---,0.00,VWS V14.01,2013-11-04 17:29:00,
2013-11-04 12:34:00,40.3,0.2,29.74,NE,51,0.0,0.0,18,0.00,,---,0.00,VWS V14.01,2013-11-04 17:34:00,
2013-11-04 12:39:00,40.3,0.2,29.74,NE,48,0.0,0.0,18,0.00,,---,0.00,VWS V14.01,2013-11-04 17:39:00,
2013-11-04 12:44:00,40.3,0.2,29.74,East,88,3.6,5.8,18,0.00,,---,0.00,VWS V14.01,2013-11-04 17:44:00,
2013-11-04 12:49:00,39.9,-0.1,29.74,North,3,2.7,4.0,18,0.00,,---,0.00,VWS V14.01,2013-11-04 17:49:00,
2013-11-04 12:54:00,39.7,-0.3,29.74,NNE,18,0.0,0.0,18,0.00,,---,0.00,VWS V14.01,2013-11-04 17:54:00,
2013-11-04 12:59:00,39.6,-0.4,29.74,North,1,0.0,4.5,18,0.00,,---,0.00,VWS V14.01,2013-11-04 17:59:00,
2013-11-04 13:04:00,39.6,-0.4,29.74,North,8,4.0,4.5,18,0.00,,---,0.00,VWS V14.01,2013-11-04 18:04:00,
2013-11-04 13:09:00,39.4,-0.6,29.74,ENE,71,0.0,0.0,18,0.00,,---,0.00,VWS V14.01,2013-11-04 18:09:00,
2013-11-04 13:14:00,39.4,-0.6,29.74,ENE,71,0.0,0.0,18,0.00,,---,0.00,VWS V14.01,2013-11-04 18:14:00,
2013-11-04 13:19:00,39.2,-0.7,29.74,NE,35,0.0,0.0,18,0.00,,---,0.00,VWS V14.01,2013-11-04 18:19:00,
2013-11-04 13:24:00,39.4,-0.6,29.74,North,0,2.7,4.9,18,0.00,,---,0.00,VWS V14.01,2013-11-04 18:24:00,
2013-11-04 13:29:00,39.6,-0.4,29.74,North,0,0.0,0.0,18,0.00,,---,0.00,VWS V14.01,2013-11-04 18:29:00,
2013-11-04 13:34:00,39.6,-0.4,29.74,North,0,0.0,0.0,18,0.00,,---,0.00,VWS V14.01,2013-11-04 18:34:00,
2013-11-04 13:39:00,39.7,-0.3,29.74,North,0,0.0,0.0,18,0.00,,---,0.00,VWS V14.01,2013-11-04 18:39:00,
2013-11-04 13:44:00,39.6,-0.4,29.74,North,0,0.0,0.0,18,0.00,,---,0.00,VWS V14.01,2013-11-04 18:44:00,
2013-11-04 13:49:00,39.6,-0.4,29.74,NE,47,0.0,0.0,18,0.00,,---,0.00,VWS V14.01,2013-11-04 18:49:00,
2013-11-04 13:54:00,39.6,-0.4,29.74,NE,47,0.0,0.0,18,0.00,,---,0.00,VWS V14.01,2013-11-04 18:54:00,
2013-11-04 13:59:00,39.7,-0.3,29.74,North,0,2.7,4.5,18,0.00,,---,0.00,VWS V14.01,2013-11-04 18:59:00,
2013-11-04 14:04:00,39.7,-0.3,29.74,NE,42,3.1,3.6,18,0.00,,---,0.00,VWS V14.01,2013-11-04 19:04:00,
2013-11-04 14:09:00,39.9,-0.1,29.74,North,3,0.0,3.1,18,0.00,,---,0.00,VWS V14.01,2013-11-04 19:09:00,
2013-11-04 14:14:00,40.1,0.0,29.74,East,87,5.8,7.4,18,0.00,,---,0.00,VWS V14.01,2013-11-04 19:14:00,
2013-11-04 14:19:00,40.3,0.2,29.74,East,81,0.0,0.0,18,0.00,,---,0.00,VWS V14.01,2013-11-04 19:19:00,
2013-11-04 14:24:00,40.1,0.0,29.74,ESE,111,0.0,0.0,18,0.00,,---,0.00,VWS V14.01,2013-11-04 19:24:00,
2013-11-04 14:29:00,40.1,0.0,29.74,South,171,0.0,0.0,18,0.00,,---,0.00,VWS V14.01,2013-11-04 19:29:00,
2013-11-04 14:34:00,39.9,-0.1,29.74,North,4,0.0,0.0,18,0.00,,---,0.00,VWS V14.01,2013-11-04 19:34:00,
2013-11-04 14:39:00,39.9,-0.1,29.74,North,9,0.0,0.0,18,0.00,,---,0.00,VWS V14.01,2013-11-04 19:39:00,
2013-11-04 14:44:00,39.7,-0.3,29.74,North,9,0.0,0.0,18,0.00,,---,0.00,VWS V14.01,2013-11-04 19:44:00,
2013-11-04 14:49:00,39.7,-0.3,29.74,North,9,0.0,0.0,18,0.00,,---,0.00,VWS V14.01,2013-11-04 19:49:00,
2013-11-04 14:54:00,39.6,-0.4,29.74,North,9,0.0,0.0,18,0.00,,---,0.00,VWS V14.01,2013-11-04 19:54:00,
2013-11-04 14:59:00,39.4,-0.6,29.74,North,9,0.0,0.0,18,0.00,,---,0.00,VWS V14.01,2013-11-04 19:59:00,
2013-11-04 15:04:00,39.4,-0.6,29.74,North,9,0.0,0.0,18,0.00,,---,0.00,VWS V14.01,2013-11-04 20:04:00,
2013-11-04 15:09:00,39.4,-0.6,29.74,North,9,0.0,0.0,18,0.00,,---,0.00,VWS V14.01,2013-11-04 20:09:00,
2013-11-04 15:14:00,39.2,-0.7,29.74,North,9,0.0,0.0,18,0.00,,---,0.00,VWS V14.01,2013-11-04 20:14:00,
2013-11-04 15:19:00,39.2,-0.7,29.74,North,9,0.0,0.0,18,0.00,,---,0.00,VWS V14.01,2013-11-04 20:19:00,
2013-11-04 15:24:00,39.2,-0.7,29.74,North,9,0.0,0.0,18,0.00,,---,0.00,VWS V14.01,2013-11-04 20:24:00,
2013-11-04 15:29:00,39.2,-0.7,29.74,North,9,0.0,0.0,18,0.00,,---,0.00,VWS V14.01,2013-11-04 20:29:00,
2013-11-04 15:34:00,39.2,-0.7,29.74,North,9,0.0,0.0,18,0.00,,---,0.00,VWS V14.01,2013-11-04 20:34:00,
2013-11-04 15:39:00,39.2,-0.7,29.74,North,9,0.0,0.0,18,0.00,,---,0.00,VWS V14.01,2013-11-04 20:39:00,
2013-11-04 15:44:00,39.2,-0.7,29.74,North,9,0.0,0.0,18,0.00,,---,0.00,VWS V14.01,2013-11-04 20:44:00,
2013-11-04 15:49:00,39.4,-0.6,29.74,North,9,0.0,0.0,18,0.00,,---,0.00,VWS V14.01,2013-11-04 20:49:00,
2013-11-04 15:54:00,39.4,-0.6,29.74,North,9,0.0,0.0,18,0.00,,---,0.00,VWS V14.01,2013-11-04 20:54:00,
2013-11-04 15:59:00,39.2,-0.7,29.74,North,9,0.0,0.0,18,0.00,,---,0.00,VWS V14.01,2013-11-04 20:59:00,
2013-11-04 16:04:00,39.2,-0.7,29.77,North,9,0.0,0.0,18,0.00,,---,0.00,VWS V14.01,2013-11-04 21:04:00,
2013-11-04 16:09:00,39.2,-0.7,29.77,South,188,0.0,0.0,18,0.00,,---,0.00,VWS V14.01,2013-11-04 21:09:00,
2013-11-04 16:14:00,39.4,-0.6,29.77,South,188,0.0,0.0,18,0.00,,---,0.00,VWS V14.01,2013-11-04 21:14:00,
2013-11-04 16:19:00,39.4,-0.6,29.77,South,188,0.0,0.0,18,0.00,,---,0.00,VWS V14.01,2013-11-04 21:19:00,
2013-11-04 16:24:00,39.4,-0.6,29.77,South,188,0.0,0.0,18,0.00,,---,0.00,VWS V14.01,2013-11-04 21:24:00,
2013-11-04 16:29:00,39.4,-0.6,29.77,South,188,0.0,0.0,18,0.00,,---,0.00,VWS V14.01,2013-11-04 21:29:00,
2013-11-04 16:34:00,39.2,-0.7,29.77,South,188,0.0,0.0,18,0.00,,---,0.00,VWS V14.01,2013-11-04 21:34:00,
2013-11-04 16:39:00,39.0,-0.9,29.77,SW,220,0.0,0.0,18,0.00,,---,0.00,VWS V14.01,2013-11-04 21:39:00,
2013-11-04 16:44:00,38.8,-1.0,29.77,SW,220,0.0,0.0,18,0.00,,---,0.00,VWS V14.01,2013-11-04 21:44:00,
2013-11-04 16:49:00,38.8,-1.0,29.77,SW,220,0.0,0.0,18,0.00,,---,0.00,VWS V14.01,2013-11-04 21:49:00,
2013-11-04 16:54:00,38.7,-1.2,29.77,SW,220,0.0,0.0,18,0.00,,---,0.00,VWS V14.01,2013-11-04 21:54:00,
2013-11-04 16:59:00,38.5,-1.3,29.77,SW,220,0.0,0.0,18,0.00,,---,0.00,VWS V14.01,2013-11-04 21:59:00,
2013-11-04 17:04:00,38.1,-0.5,29.77,SW,220,0.0,0.0,19,0.00,,---,0.00,VWS V14.01,2013-11-04 22:04:00,
2013-11-04 17:09:00,37.8,-0.8,29.77,SW,220,0.0,0.0,19,0.00,,---,0.00,VWS V14.01,2013-11-04 22:09:00,
2013-11-04 17:14:00,37.6,-0.9,29.77,SW,220,0.0,0.0,19,0.00,,---,0.00,VWS V14.01,2013-11-04 22:14:00,
2013-11-04 17:19:00,37.4,-1.1,29.77,SW,220,0.0,0.0,19,0.00,,---,0.00,VWS V14.01,2013-11-04 22:19:00,
2013-11-04 17:24:00,37.2,-1.2,29.77,SW,220,0.0,0.0,19,0.00,,---,0.00,VWS V14.01,2013-11-04 22:24:00,
2013-11-04 17:29:00,37.0,-1.4,29.77,SW,220,0.0,0.0,19,0.00,,---,0.00,VWS V14.01,2013-11-04 22:29:00,
2013-11-04 17:34:00,36.9,-1.5,29.77,SW,220,0.0,0.0,19,0.00,,---,0.00,VWS V14.01,2013-11-04 22:34:00,
2013-11-04 17:39:00,36.7,-1.7,29.77,SW,220,0.0,0.0,19,0.00,,---,0.00,VWS V14.01,2013-11-04 22:39:00,
2013-11-04 17:44:00,36.7,-1.7,29.77,SW,220,0.0,0.0,19,0.00,,---,0.00,VWS V14.01,2013-11-04 22:44:00,
2013-11-04 17:49:00,36.5,-1.8,29.77,SW,220,0.0,0.0,19,0.00,,---,0.00,VWS V14.01,2013-11-04 22:49:00,
2013-11-04 17:54:00,36.3,-2.0,29.77,SW,220,0.0,0.0,19,0.00,,---,0.00,VWS V14.01,2013-11-04 22:54:00,
2013-11-04 17:59:00,36.3,-2.0,29.77,SW,220,0.0,0.0,19,0.00,,---,0.00,VWS V14.01,2013-11-04 22:59:00,
2013-11-04 18:04:00,36.3,-2.0,29.80,SW,220,0.0,0.0,19,0.00,,---,0.00,VWS V14.01,2013-11-04 23:04:00,
2013-11-04 18:09:00,36.3,-2.0,29.80,SW,220,0.0,0.0,19,0.00,,---,0.00,VWS V14.01,2013-11-04 23:09:00,
2013-11-04 18:14:00,36.5,1.3,29.80,SW,220,0.0,0.0,22,0.00,,---,0.00,VWS V14.01,2013-11-04 23:14:00,
2013-11-04 18:19:00,36.7,0.4,29.80,SW,220,0.0,0.0,21,0.00,,---,0.00,VWS V14.01,2013-11-04 23:19:00,
2013-11-04 18:24:00,36.7,0.4,29.80,West,278,0.0,0.0,21,0.00,,---,0.00,VWS V14.01,2013-11-04 23:24:00,
2013-11-04 18:29:00,36.9,0.6,29.80,WNW,294,0.0,0.0,21,0.00,,---,0.00,VWS V14.01,2013-11-04 23:29:00,
2013-11-04 18:34:00,36.9,0.6,29.80,WNW,294,0.0,0.0,21,0.00,,---,0.00,VWS V14.01,2013-11-04 23:34:00,
2013-11-04 18:39:00,36.9,0.6,29.80,WNW,294,0.0,0.0,21,0.00,,---,0.00,VWS V14.01,2013-11-04 23:39:00,
2013-11-04 18:44:00,36.7,0.4,29.80,WNW,294,0.0,0.0,21,0.00,,---,0.00,VWS V14.01,2013-11-04 23:44:00,
2013-11-04 18:49:00,36.7,0.4,29.80,WNW,294,0.0,0.0,21,0.00,,---,0.00,VWS V14.01,2013-11-04 23:49:00,
2013-11-04 18:54:00,36.7,0.4,29.80,WNW,294,0.0,0.0,21,0.00,,---,0.00,VWS V14.01,2013-11-04 23:54:00,
2013-11-04 18:59:00,36.9,0.6,29.80,WNW,294,0.0,0.0,21,0.00,,---,0.00,VWS V14.01,2013-11-04 23:59:00,
2013-11-04 19:04:00,37.0,0.7,29.80,WNW,294,0.0,0.0,21,0.00,,---,0.00,VWS V14.01,2013-11-05 00:04:00,
2013-11-04 19:09:00,37.0,0.7,29.80,WNW,294,0.0,0.0,21,0.00,,---,0.00,VWS V14.01,2013-11-05 00:09:00,
2013-11-04 19:14:00,36.9,0.6,29.80,WNW,294,0.0,0.0,21,0.00,,---,0.00,VWS V14.01,2013-11-05 00:14:00,
2013-11-04 19:19:00,36.7,0.4,29.80,WNW,294,0.0,0.0,21,0.00,,---,0.00,VWS V14.01,2013-11-05 00:19:00,
2013-11-04 19:24:00,36.5,0.3,29.80,WNW,294,0.0,0.0,21,0.00,,---,0.00,VWS V14.01,2013-11-05 00:24:00,
2013-11-04 19:29:00,36.3,1.1,29.80,WNW,294,0.0,0.0,22,0.00,,---,0.00,VWS V14.01,2013-11-05 00:29:00,
2013-11-04 19:34:00,36.3,1.1,29.77,WNW,294,0.0,0.0,22,0.00,,---,0.00,VWS V14.01,2013-11-05 00:34:00,
2013-11-04 19:39:00,36.3,1.1,29.77,WNW,294,0.0,0.0,22,0.00,,---,0.00,VWS V14.01,2013-11-05 00:39:00,
2013-11-04 19:44:00,36.3,1.1,29.77,WNW,294,0.0,0.0,22,0.00,,---,0.00,VWS V14.01,2013-11-05 00:44:00,
2013-11-04 19:49:00,36.3,1.1,29.80,WNW,294,0.0,0.0,22,0.00,,---,0.00,VWS V14.01,2013-11-05 00:49:00,
2013-11-04 19:54:00,36.1,1.0,29.80,WNW,294,0.0,0.0,22,0.00,,---,0.00,VWS V14.01,2013-11-05 00:54:00,
2013-11-04 19:59:00,36.1,1.0,29.80,WNW,294,0.0,0.0,22,0.00,,---,0.00,VWS V14.01,2013-11-05 00:59:00,
2013-11-04 20:04:00,36.1,1.0,29.80,WNW,294,0.0,0.0,22,0.00,,---,0.00,VWS V14.01,2013-11-05 01:04:00,
2013-11-04 20:09:00,36.3,1.1,29.80,WNW,294,0.0,0.0,22,0.00,,---,0.00,VWS V14.01,2013-11-05 01:09:00,
2013-11-04 20:14:00,36.1,1.0,29.80,WNW,294,0.0,0.0,22,0.00,,---,0.00,VWS V14.01,2013-11-05 01:14:00,
2013-11-04 20:19:00,36.1,1.0,29.80,WNW,294,0.0,0.0,22,0.00,,---,0.00,VWS V14.01,2013-11-05 01:19:00,
2013-11-04 20:24:00,36.1,1.0,29.80,WNW,294,0.0,0.0,22,0.00,,---,0.00,VWS V14.01,2013-11-05 01:24:00,
2013-11-04 20:29:00,36.1,1.0,29.80,WNW,294,0.0,0.0,22,0.00,,---,0.00,VWS V14.01,2013-11-05 01:29:00,
2013-11-04 20:34:00,36.0,0.8,29.80,WNW,294,0.0,0.0,22,0.00,,---,0.00,VWS V14.01,2013-11-05 01:34:00,
2013-11-04 20:39:00,35.6,0.5,29.80,WNW,294,0.0,0.0,22,0.00,,---,0.00,VWS V14.01,2013-11-05 01:39:00,
2013-11-04 20:44:00,35.4,0.4,29.80,WNW,294,0.0,0.0,22,0.00,,---,0.00,VWS V14.01,2013-11-05 01:44:00,
2013-11-04 20:49:00,35.4,0.4,29.80,WNW,294,0.0,0.0,22,0.00,,---,0.00,VWS V14.01,2013-11-05 01:49:00,
2013-11-04 20:54:00,35.4,2.2,29.80,WNW,294,0.0,0.0,24,0.00,,---,0.00,VWS V14.01,2013-11-05 01:54:00,
2013-11-04 20:59:00,35.6,2.4,29.80,WNW,294,0.0,0.0,24,0.00,,---,0.00,VWS V14.01,2013-11-05 01:59:00,
2013-11-04 21:04:00,35.6,2.4,29.80,WNW,294,0.0,0.0,24,0.00,,---,0.00,VWS V14.01,2013-11-05 02:04:00,
2013-11-04 21:09:00,35.6,2.4,29.80,WNW,294,0.0,0.0,24,0.00,,---,0.00,VWS V14.01,2013-11-05 02:09:00,
2013-11-04 21:14:00,35.8,6.7,29.80,WNW,294,0.0,0.0,29,0.00,,---,0.00,VWS V14.01,2013-11-05 02:14:00,
2013-11-04 21:19:00,35.8,6.7,29.80,WNW,294,0.0,0.0,29,0.00,,---,0.00,VWS V14.01,2013-11-05 02:19:00,
2013-11-04 21:24:00,36.0,6.8,29.80,WNW,294,0.0,0.0,29,0.00,,---,0.00,VWS V14.01,2013-11-05 02:24:00,
2013-11-04 21:29:00,36.0,6.8,29.80,WNW,294,0.0,0.0,29,0.00,,---,0.00,VWS V14.01,2013-11-05 02:29:00,
2013-11-04 21:34:00,36.1,2.8,29.80,WNW,294,0.0,0.0,24,0.00,,---,0.00,VWS V14.01,2013-11-05 02:34:00,
2013-11-04 21:39:00,36.3,3.0,29.80,WNW,294,0.0,0.0,24,0.00,,---,0.00,VWS V14.01,2013-11-05 02:39:00,
2013-11-04 21:44:00,36.1,2.8,29.80,WNW,294,0.0,0.0,24,0.00,,---,0.00,VWS V14.01,2013-11-05 02:44:00,
2013-11-04 21:49:00,36.0,2.7,29.80,WNW,294,0.0,0.0,24,0.00,,---,0.00,VWS V14.01,2013-11-05 02:49:00,
2013-11-04 21:54:00,35.8,2.5,29.80,WNW,294,0.0,0.0,24,0.00,,---,0.00,VWS V14.01,2013-11-05 02:54:00,
2013-11-04 21:59:00,35.8,5.1,29.80,WNW,294,0.0,0.0,27,0.00,,---,0.00,VWS V14.01,2013-11-05 02:59:00,
2013-11-04 22:04:00,35.8,5.1,29.80,WNW,294,0.0,0.0,27,0.00,,---,0.00,VWS V14.01,2013-11-05 03:04:00,
2013-11-04 22:09:00,35.8,5.1,29.80,WNW,294,0.0,0.0,27,0.00,,---,0.00,VWS V14.01,2013-11-05 03:09:00,
2013-11-04 22:14:00,36.0,5.2,29.80,WNW,294,0.0,0.0,27,0.00,,---,0.00,VWS V14.01,2013-11-05 03:14:00,
2013-11-04 22:19:00,36.0,5.2,29.80,WNW,294,0.0,0.0,27,0.00,,---,0.00,VWS V14.01,2013-11-05 03:19:00,
2013-11-04 22:24:00,36.0,5.2,29.80,WNW,294,0.0,0.0,27,0.00,,---,0.00,VWS V14.01,2013-11-05 03:24:00,
2013-11-04 22:29:00,36.1,2.8,29.80,WNW,294,0.0,0.0,24,0.00,,---,0.00,VWS V14.01,2013-11-05 03:29:00,
2013-11-04 22:34:00,36.0,2.7,29.80,WNW,294,0.0,0.0,24,0.00,,---,0.00,VWS V14.01,2013-11-05 03:34:00,
2013-11-04 22:39:00,35.8,2.5,29.80,WNW,294,0.0,0.0,24,0.00,,---,0.00,VWS V14.01,2013-11-05 03:39:00,
2013-11-04 22:44:00,35.6,2.4,29.80,WNW,294,0.0,0.0,24,0.00,,---,0.00,VWS V14.01,2013-11-05 03:44:00,
2013-11-04 22:49:00,35.6,2.4,29.80,WNW,294,0.0,0.0,24,0.00,,---,0.00,VWS V14.01,2013-11-05 03:49:00,
2013-11-04 22:54:00,35.6,2.4,29.80,WNW,294,0.0,0.0,24,0.00,,---,0.00,VWS V14.01,2013-11-05 03:54:00,
2013-11-04 22:59:00,35.6,2.4,29.80,WNW,294,0.0,0.0,24,0.00,,---,0.00,VWS V14.01,2013-11-05 03:59:00,
2013-11-04 23:04:00,35.8,2.5,29.80,WNW,294,0.0,0.0,24,0.00,,---,0.00,VWS V14.01,2013-11-05 04:04:00,
2013-11-04 23:09:00,35.8,2.5,29.80,South,182,0.0,0.0,24,0.00,,---,0.00,VWS V14.01,2013-11-05 04:09:00,
2013-11-04 23:14:00,35.8,0.7,29.80,South,182,0.0,0.0,22,0.00,,---,0.00,VWS V14.01,2013-11-05 04:14:00,
2013-11-04 23:19:00,35.8,0.7,29.80,South,182,0.0,0.0,22,0.00,,---,0.00,VWS V14.01,2013-11-05 04:19:00,
2013-11-04 23:24:00,35.8,0.7,29.80,South,182,0.0,0.0,22,0.00,,---,0.00,VWS V14.01,2013-11-05 04:24:00,
2013-11-04 23:29:00,35.6,0.5,29.80,South,182,0.0,0.0,22,0.00,,---,0.00,VWS V14.01,2013-11-05 04:29:00,
2013-11-04 23:34:00,35.8,2.5,29.80,South,182,0.0,0.0,24,0.00,,---,0.00,VWS V14.01,2013-11-05 04:34:00,
2013-11-04 23:39:00,35.8,2.5,29.80,South,182,0.0,0.0,24,0.00,,---,0.00,VWS V14.01,2013-11-05 04:39:00,
2013-11-04 23:44:00,35.6,2.4,29.80,South,182,0.0,0.0,24,0.00,,---,0.00,VWS V14.01,2013-11-05 04:44:00,
2013-11-04 23:49:00,35.4,2.2,29.80,South,182,0.0,0.0,24,0.00,,---,0.00,VWS V14.01,2013-11-05 04:49:00,
2013-11-04 23:55:00,35.4,0.4,29.80,South,182,0.0,0.0,22,0.00,,---,0.00,VWS V14.01,2013-11-05 04:55:00,